Hobbs, New Mexico
Current Conditions -  °F | °C
As of 2:50 PM on Monday 20 Oct 2014 (Local Time) from KHOB Reporting Station
Broken Clouds Broken Clouds  
Wind Chill: 73°   Ceiling: 4800
Heat Index: 73°   Visibility: 10mi
Dew Point: 54°   Wind: 13mph
Humidity: 50%   Direction: 100°E
Pressure: 30.07"   Gusts: NA
Location:  32.7°N, 103.12°W
Report Text: KHOB 202050Z 10011KT 10SM FEW037 BKN048 23/12 A3007
Loading
Personal Weather Stations






























Interactive Weather Map New forecast layout! Learn more

10-Day Weather Forecast

Advertisements
Track Severe Weather on mobile